createdAt,value
2022-10-13T00:01:08.432Z,15.40
2022-10-13T00:03:36.317Z,15.30
2022-10-13T00:06:06.229Z,15.40
2022-10-13T00:08:34.404Z,15.30
2022-10-13T00:11:01.982Z,15.30
2022-10-13T00:13:29.134Z,15.30
2022-10-13T00:15:56.246Z,15.30
2022-10-13T00:18:23.308Z,15.30
2022-10-13T00:20:51.156Z,15.30
2022-10-13T00:23:18.682Z,15.30
2022-10-13T00:25:50.958Z,15.30
2022-10-13T00:28:19.849Z,15.30
2022-10-13T00:30:47.367Z,15.30
2022-10-13T00:33:14.625Z,15.30
2022-10-13T00:35:43.974Z,15.20
2022-10-13T00:38:12.348Z,15.20
2022-10-13T00:40:55.184Z,15.20
2022-10-13T00:43:47.183Z,15.20
2022-10-13T00:46:15.551Z,15.20
2022-10-13T00:48:44.665Z,15.10
2022-10-13T00:51:14.633Z,15.10
2022-10-13T00:53:42.259Z,15.00
2022-10-13T00:56:11.630Z,15.00
2022-10-13T00:58:39.428Z,14.90
2022-10-13T01:01:07.679Z,14.80
2022-10-13T01:03:36.541Z,14.80
2022-10-13T01:06:05.798Z,14.70
2022-10-13T01:08:34.623Z,14.60
2022-10-13T01:11:04.698Z,14.50
2022-10-13T01:13:48.116Z,14.40
2022-10-13T01:17:03.350Z,14.30
2022-10-13T01:20:23.264Z,14.30
2022-10-13T01:23:45.606Z,14.20
2022-10-13T01:26:18.549Z,14.10
2022-10-13T01:29:13.082Z,14.10
2022-10-13T01:32:18.168Z,14.00
2022-10-13T01:35:15.346Z,13.90
2022-10-13T01:37:56.476Z,13.90
2022-10-13T01:40:38.851Z,13.80
2022-10-13T01:43:25.219Z,13.80
2022-10-13T01:46:17.725Z,13.80
2022-10-13T01:48:47.894Z,13.70
2022-10-13T01:51:19.831Z,13.70
2022-10-13T01:53:49.170Z,13.70
2022-10-13T01:56:16.497Z,13.60
2022-10-13T01:58:45.692Z,13.60
2022-10-13T02:01:36.240Z,13.60
2022-10-13T02:04:26.052Z,13.60
2022-10-13T02:07:25.152Z,13.60
2022-10-13T02:10:09.616Z,13.70
2022-10-13T02:12:49.961Z,13.60
2022-10-13T02:15:24.649Z,13.60
2022-10-13T02:17:53.342Z,13.60
2022-10-13T02:20:22.217Z,13.60
2022-10-13T02:22:58.874Z,13.60
2022-10-13T02:25:27.679Z,13.60
2022-10-13T02:27:58.062Z,13.50
2022-10-13T02:30:30.072Z,13.50
2022-10-13T02:32:57.449Z,13.50
2022-10-13T02:35:24.709Z,13.50
2022-10-13T02:37:52.177Z,13.50
2022-10-13T02:40:20.003Z,13.50
2022-10-13T02:42:47.266Z,13.50
2022-10-13T02:45:15.269Z,13.50
2022-10-13T02:47:42.600Z,13.50
2022-10-13T02:50:10.452Z,13.50
2022-10-13T02:52:38.126Z,13.50
2022-10-13T02:55:06.672Z,13.50
2022-10-13T02:57:35.434Z,13.50
2022-10-13T03:00:02.764Z,13.50
2022-10-13T03:02:30.003Z,13.50
2022-10-13T03:04:57.253Z,13.50
2022-10-13T03:07:24.570Z,13.50
2022-10-13T03:09:52.047Z,13.40
2022-10-13T03:12:19.634Z,13.40
2022-10-13T03:14:47.148Z,13.40
2022-10-13T03:17:14.431Z,13.40
2022-10-13T03:19:41.706Z,13.40
2022-10-13T03:22:09.247Z,13.40
2022-10-13T03:24:36.561Z,13.30
2022-10-13T03:27:03.993Z,13.40
2022-10-13T03:29:31.460Z,13.40
2022-10-13T03:31:58.753Z,13.40
2022-10-13T03:34:26.110Z,13.40
2022-10-13T03:36:53.397Z,13.40
2022-10-13T03:39:20.617Z,13.40
2022-10-13T03:41:47.883Z,13.40
2022-10-13T03:44:15.588Z,13.40
2022-10-13T03:46:43.099Z,13.40
2022-10-13T03:49:11.895Z,13.40
2022-10-13T03:51:39.622Z,13.40
2022-10-13T03:54:06.993Z,13.40
2022-10-13T03:56:34.187Z,13.50
2022-10-13T03:59:01.836Z,13.50
2022-10-13T04:01:30.886Z,13.50
2022-10-13T04:04:00.170Z,13.50
2022-10-13T04:06:28.056Z,13.40
2022-10-13T04:08:55.900Z,13.30
2022-10-13T04:11:23.196Z,13.30
2022-10-13T04:13:50.873Z,13.30
2022-10-13T04:16:25.962Z,13.30
2022-10-13T04:19:00.843Z,13.30
2022-10-13T04:21:30.403Z,13.20
2022-10-13T04:23:59.823Z,13.20
2022-10-13T04:26:31.267Z,13.20
2022-10-13T04:28:59.823Z,13.20
2022-10-13T04:31:29.198Z,13.10
2022-10-13T04:33:57.126Z,13.20
2022-10-13T04:36:25.048Z,13.10
2022-10-13T04:38:54.046Z,13.10
2022-10-13T04:41:22.505Z,13.10
2022-10-13T04:43:50.799Z,13.00
2022-10-13T04:46:22.709Z,13.00
2022-10-13T04:48:50.831Z,13.00
2022-10-13T04:51:22.516Z,13.00
2022-10-13T04:53:57.275Z,13.00
2022-10-13T04:56:26.029Z,13.00
2022-10-13T04:58:53.504Z,13.00
2022-10-13T05:01:25.124Z,13.00
2022-10-13T05:04:00.966Z,12.90
2022-10-13T05:06:35.326Z,12.90
2022-10-13T05:09:04.033Z,13.00
2022-10-13T05:11:32.362Z,13.00
2022-10-13T05:14:01.251Z,12.90
2022-10-13T05:16:29.429Z,12.90
2022-10-13T05:18:56.930Z,12.90
2022-10-13T05:21:28.790Z,13.00
2022-10-13T05:23:57.535Z,13.10
2022-10-13T05:26:29.241Z,13.00
2022-10-13T05:29:02.501Z,13.10
2022-10-13T05:31:32.758Z,13.10
2022-10-13T05:34:01.286Z,13.10
2022-10-13T05:36:35.207Z,13.10
2022-10-13T05:39:08.789Z,13.10
2022-10-13T05:41:36.192Z,13.10
2022-10-13T05:44:08.632Z,13.10
2022-10-13T05:46:36.921Z,13.10
2022-10-13T05:49:04.865Z,13.10
2022-10-13T05:51:41.965Z,13.10
2022-10-13T05:54:44.357Z,13.00
2022-10-13T05:57:22.630Z,13.00
2022-10-13T06:00:00.720Z,13.00
2022-10-13T06:02:38.168Z,13.00
2022-10-13T06:05:12.597Z,13.10
2022-10-13T06:07:39.896Z,13.10
2022-10-13T06:10:07.526Z,13.10
2022-10-13T06:12:34.902Z,13.10
2022-10-13T06:15:02.087Z,13.20
2022-10-13T06:17:29.549Z,13.30
2022-10-13T06:19:59.565Z,13.40
2022-10-13T06:22:29.240Z,13.60
2022-10-13T06:24:59.774Z,13.80
2022-10-13T06:27:27.869Z,13.90
2022-10-13T06:29:55.849Z,14.10
2022-10-13T06:32:23.611Z,14.20
2022-10-13T06:34:51.423Z,14.30
2022-10-13T06:37:21.223Z,14.40
2022-10-13T06:39:52.189Z,14.50
2022-10-13T06:42:19.788Z,14.40
2022-10-13T06:44:47.342Z,14.50
2022-10-13T06:47:14.848Z,14.50
2022-10-13T06:49:42.218Z,14.50
2022-10-13T06:52:10.638Z,14.50
2022-10-13T06:54:38.061Z,14.70
2022-10-13T06:57:08.535Z,14.90
2022-10-13T06:59:35.896Z,15.00
2022-10-13T07:02:03.245Z,15.00
2022-10-13T07:04:30.503Z,15.00
2022-10-13T07:06:58.133Z,15.00
2022-10-13T07:09:25.694Z,15.10
2022-10-13T07:11:53.036Z,15.10
2022-10-13T07:14:20.387Z,15.20
2022-10-13T07:16:50.694Z,15.30
2022-10-13T07:19:18.011Z,15.40
2022-10-13T07:21:45.284Z,15.40
2022-10-13T07:24:13.108Z,15.50
2022-10-13T07:26:40.493Z,15.50
2022-10-13T07:29:08.830Z,15.60
2022-10-13T07:31:36.233Z,15.70
2022-10-13T07:34:05.097Z,15.80
2022-10-13T07:36:33.750Z,15.90
2022-10-13T07:39:03.338Z,16.00
2022-10-13T07:41:30.747Z,16.10
2022-10-13T07:43:58.897Z,16.10
2022-10-13T07:46:26.708Z,16.10
2022-10-13T07:48:54.992Z,16.20
2022-10-13T07:51:23.622Z,16.20
2022-10-13T07:53:51.262Z,16.20
2022-10-13T07:56:18.573Z,16.20
2022-10-13T07:58:47.635Z,16.20
2022-10-13T08:01:16.655Z,16.30
2022-10-13T08:03:49.805Z,16.40
2022-10-13T08:06:18.897Z,16.50
2022-10-13T08:08:46.285Z,16.60
2022-10-13T08:11:17.023Z,16.70
2022-10-13T08:13:50.907Z,16.70
2022-10-13T08:16:19.084Z,16.80
2022-10-13T08:18:46.935Z,16.70
2022-10-13T08:21:56.766Z,16.80
2022-10-13T08:24:09.103Z,16.80
2022-10-13T08:26:36.359Z,16.90
2022-10-13T08:31:54.064Z,16.90
2022-10-13T08:34:24.016Z,16.90
2022-10-13T08:36:55.434Z,16.90
2022-10-13T08:39:24.368Z,16.80
2022-10-13T08:41:53.198Z,16.80
2022-10-13T08:48:07.638Z,17.00
2022-10-13T08:50:41.147Z,17.20
2022-10-13T08:53:41.230Z,17.30
2022-10-13T08:56:35.962Z,17.30
2022-10-13T08:59:05.117Z,17.50
2022-10-13T09:01:36.239Z,17.50
2022-10-13T09:04:39.295Z,17.70
2022-10-13T09:07:09.317Z,17.90
2022-10-13T09:09:38.016Z,18.10
2022-10-13T09:12:06.514Z,18.20
2022-10-13T09:14:38.830Z,18.30
2022-10-13T09:17:17.571Z,18.20
2022-10-13T09:19:46.366Z,18.20
2022-10-13T09:22:26.031Z,18.30
2022-10-13T09:25:04.687Z,18.40
2022-10-13T09:27:41.785Z,18.40
2022-10-13T09:30:32.900Z,18.40
2022-10-13T09:33:22.335Z,18.50
2022-10-13T09:36:07.455Z,18.60
2022-10-13T09:38:35.191Z,18.60
2022-10-13T09:41:21.454Z,18.60
2022-10-13T09:43:48.546Z,18.70
2022-10-13T09:46:26.590Z,18.80
2022-10-13T09:49:08.283Z,19.00
2022-10-13T09:51:40.138Z,19.00
2022-10-13T09:54:29.006Z,19.00
2022-10-13T09:57:37.656Z,19.10
2022-10-13T10:00:27.156Z,19.10
2022-10-13T10:03:29.445Z,19.10
2022-10-13T10:06:00.734Z,19.10
2022-10-13T10:09:02.704Z,19.20
2022-10-13T10:11:40.152Z,19.20
2022-10-13T10:14:37.143Z,19.30
2022-10-13T10:17:32.629Z,19.40
2022-10-13T10:20:18.644Z,19.50
2022-10-13T10:23:04.099Z,19.40
2022-10-13T10:25:42.040Z,19.50
2022-10-13T10:28:15.181Z,19.60
2022-10-13T10:31:17.609Z,19.70
2022-10-13T10:34:07.853Z,19.80
2022-10-13T10:36:45.139Z,19.80
2022-10-13T10:39:31.054Z,19.90
2022-10-13T10:42:04.453Z,20.00
2022-10-13T10:44:44.136Z,20.10
2022-10-13T10:47:40.082Z,20.20
2022-10-13T10:50:13.474Z,20.30
2022-10-13T10:52:59.279Z,20.40
2022-10-13T10:55:53.177Z,20.50
2022-10-13T10:58:42.260Z,20.50
2022-10-13T11:01:12.521Z,20.60
2022-10-13T11:03:59.678Z,20.70
2022-10-13T11:06:38.330Z,20.80
2022-10-13T11:09:06.614Z,20.90
2022-10-13T11:11:38.349Z,20.90
2022-10-13T11:14:05.547Z,20.90
2022-10-13T11:16:41.678Z,20.90
2022-10-13T11:19:08.994Z,20.90
2022-10-13T11:21:59.815Z,20.80
2022-10-13T11:25:29.537Z,20.90
2022-10-13T11:27:56.854Z,21.00
2022-10-13T11:30:51.677Z,21.00
2022-10-13T11:33:40.955Z,21.00
2022-10-13T11:36:32.783Z,20.90
2022-10-13T11:39:52.384Z,20.80
2022-10-13T11:43:05.078Z,20.80
2022-10-13T11:45:59.575Z,20.90
2022-10-13T11:48:55.966Z,21.00
2022-10-13T11:51:46.975Z,21.00
2022-10-13T11:54:39.974Z,21.10
2022-10-13T11:57:26.692Z,21.30
2022-10-13T11:59:57.008Z,21.40
2022-10-13T12:02:28.011Z,21.50
2022-10-13T12:05:25.938Z,21.50
2022-10-13T12:08:03.843Z,21.70
2022-10-13T12:10:38.137Z,21.90
2022-10-13T12:13:06.114Z,22.00
2022-10-13T12:16:03.351Z,22.00
2022-10-13T12:18:38.450Z,21.90
2022-10-13T12:21:14.933Z,21.80
2022-10-13T12:23:42.385Z,21.70
2022-10-13T12:26:18.071Z,21.50
2022-10-13T12:29:01.733Z,21.30
2022-10-13T12:31:43.535Z,21.00
2022-10-13T12:34:36.050Z,21.00
2022-10-13T12:37:15.163Z,21.10
2022-10-13T12:39:43.528Z,21.20
2022-10-13T12:42:14.778Z,21.30
2022-10-13T12:44:42.688Z,21.40
2022-10-13T12:47:45.137Z,21.50
2022-10-13T12:50:28.227Z,21.50
2022-10-13T12:53:28.592Z,21.50
2022-10-13T12:56:01.975Z,21.50
2022-10-13T12:58:34.024Z,21.50
2022-10-13T13:01:31.173Z,21.50
2022-10-13T13:04:16.725Z,21.50
2022-10-13T13:07:00.404Z,21.50
2022-10-13T13:09:34.252Z,21.50
2022-10-13T13:12:13.787Z,21.50
2022-10-13T13:14:51.057Z,21.40
2022-10-13T13:17:38.459Z,21.40
2022-10-13T13:20:32.124Z,21.30
2022-10-13T13:23:01.759Z,21.20
2022-10-13T13:25:29.098Z,21.10
2022-10-13T13:27:56.377Z,21.10
2022-10-13T13:30:24.815Z,21.10
2022-10-13T13:32:53.871Z,21.00
2022-10-13T13:35:21.216Z,21.00
2022-10-13T13:37:51.296Z,20.90
2022-10-13T13:40:26.274Z,20.90
2022-10-13T13:42:54.964Z,20.90
2022-10-13T13:45:25.530Z,21.00
2022-10-13T13:47:54.957Z,21.10
2022-10-13T13:50:33.236Z,21.20
2022-10-13T13:53:01.199Z,21.20
2022-10-13T13:55:30.556Z,21.30
2022-10-13T13:57:58.826Z,21.30
2022-10-13T14:00:26.560Z,21.40
2022-10-13T14:02:53.974Z,21.50
2022-10-13T14:05:21.360Z,21.50
2022-10-13T14:07:48.715Z,21.50
2022-10-13T14:10:16.117Z,21.50
2022-10-13T14:12:43.563Z,21.50
2022-10-13T14:15:11.152Z,21.50
2022-10-13T14:17:38.481Z,21.50
2022-10-13T14:20:06.660Z,21.50
2022-10-13T14:22:33.943Z,21.50
2022-10-13T14:25:01.258Z,21.50
2022-10-13T14:27:28.786Z,21.50
2022-10-13T14:29:56.082Z,21.50
2022-10-13T14:32:23.640Z,21.50
2022-10-13T14:34:53.594Z,21.50
2022-10-13T14:37:23.170Z,21.40
2022-10-13T14:39:51.154Z,21.40
2022-10-13T14:42:18.413Z,21.40
2022-10-13T14:44:46.523Z,21.40
2022-10-13T14:47:13.774Z,21.30
2022-10-13T14:49:40.973Z,21.30
2022-10-13T14:52:08.897Z,21.10
2022-10-13T14:54:39.044Z,21.10
2022-10-13T14:57:15.583Z,21.10
2022-10-13T14:59:44.334Z,21.20
2022-10-13T15:02:15.410Z,21.20
2022-10-13T15:04:42.771Z,21.20
2022-10-13T15:07:10.042Z,21.10
2022-10-13T15:09:52.810Z,21.00
2022-10-13T15:12:24.636Z,21.00
2022-10-13T15:14:51.931Z,20.90
2022-10-13T15:17:19.258Z,20.80
2022-10-13T15:19:48.590Z,20.70
2022-10-13T15:22:16.418Z,20.60
2022-10-13T15:24:43.743Z,20.50
2022-10-13T15:27:11.138Z,20.40
2022-10-13T15:29:38.489Z,20.30
2022-10-13T15:32:18.289Z,20.30
2022-10-13T15:34:46.436Z,20.20
2022-10-13T15:37:15.304Z,20.10
2022-10-13T15:39:42.612Z,20.00
2022-10-13T15:42:11.857Z,19.90
2022-10-13T15:44:57.742Z,19.90
2022-10-13T15:47:26.663Z,19.80
2022-10-13T15:49:54.603Z,19.70
2022-10-13T15:52:22.509Z,19.60
2022-10-13T15:54:51.723Z,19.50
2022-10-13T15:57:19.688Z,19.40
2022-10-13T15:59:46.990Z,19.30
2022-10-13T16:02:15.118Z,19.20
2022-10-13T16:04:43.692Z,19.10
2022-10-13T16:07:11.186Z,19.10
2022-10-13T16:09:39.752Z,19.00
2022-10-13T16:12:07.098Z,18.70
2022-10-13T16:14:34.436Z,18.50
2022-10-13T16:17:01.793Z,18.20
2022-10-13T16:19:29.547Z,18.00
2022-10-13T16:21:56.973Z,17.80
2022-10-13T16:24:24.376Z,17.70
2022-10-13T16:26:51.664Z,17.60
2022-10-13T16:29:19.066Z,17.40
2022-10-13T16:31:48.795Z,17.40
2022-10-13T16:34:16.300Z,17.30
2022-10-13T16:36:43.803Z,17.20
2022-10-13T16:39:11.567Z,17.30
2022-10-13T16:41:38.930Z,17.30
2022-10-13T16:44:06.842Z,17.30
2022-10-13T16:46:34.138Z,17.30
2022-10-13T16:49:02.009Z,17.30
2022-10-13T16:51:29.697Z,17.20
2022-10-13T16:54:03.853Z,17.20
2022-10-13T16:56:32.703Z,17.20
2022-10-13T16:59:04.601Z,17.20
2022-10-13T17:01:34.044Z,17.10
2022-10-13T17:04:02.008Z,17.00
2022-10-13T17:06:30.207Z,16.90
2022-10-13T17:08:59.853Z,16.80
2022-10-13T17:11:30.236Z,16.70
2022-10-13T17:13:59.370Z,16.60
2022-10-13T17:16:27.536Z,16.50
2022-10-13T17:18:56.144Z,16.40
2022-10-13T17:21:23.707Z,16.30
2022-10-13T17:23:51.274Z,16.30
2022-10-13T17:26:21.131Z,16.20
2022-10-13T17:28:48.906Z,16.10
2022-10-13T17:31:20.696Z,16.10
2022-10-13T17:33:48.983Z,16.00
2022-10-13T17:36:22.329Z,15.90
2022-10-13T17:38:50.979Z,15.90
2022-10-13T17:41:18.735Z,15.80
2022-10-13T17:43:46.732Z,15.80
2022-10-13T17:46:41.849Z,15.70
2022-10-13T17:49:12.249Z,15.70
2022-10-13T17:51:42.287Z,15.60
2022-10-13T17:54:16.062Z,15.50
2022-10-13T17:56:45.634Z,15.50
2022-10-13T17:59:15.342Z,15.50
2022-10-13T18:01:43.668Z,15.40
2022-10-13T18:04:18.227Z,15.40
2022-10-13T18:06:46.014Z,15.40
2022-10-13T18:09:20.115Z,15.40
2022-10-13T18:11:51.198Z,15.50
2022-10-13T18:14:24.634Z,15.50
2022-10-13T18:16:53.591Z,15.50
2022-10-13T18:19:21.794Z,15.50
2022-10-13T18:21:49.922Z,15.40
2022-10-13T18:24:17.569Z,15.40
2022-10-13T18:26:46.964Z,15.30
2022-10-13T18:29:14.513Z,15.30
2022-10-13T18:31:42.285Z,15.20
2022-10-13T18:34:16.940Z,15.20
2022-10-13T18:36:52.148Z,15.20
2022-10-13T18:39:26.905Z,15.10
2022-10-13T18:41:56.591Z,15.00
2022-10-13T18:44:25.083Z,15.00
2022-10-13T18:46:53.922Z,15.00
2022-10-13T18:49:31.254Z,14.90
2022-10-13T18:52:02.190Z,14.90
2022-10-13T18:54:30.260Z,14.80
2022-10-13T18:56:57.720Z,14.70
2022-10-13T18:59:25.019Z,14.70
2022-10-13T19:01:52.638Z,14.70
2022-10-13T19:04:23.628Z,14.60
2022-10-13T19:06:50.924Z,14.60
2022-10-13T19:09:18.276Z,14.60
2022-10-13T19:11:45.683Z,14.50
2022-10-13T19:14:15.454Z,14.50
2022-10-13T19:16:44.243Z,14.40
2022-10-13T19:19:12.348Z,14.40
2022-10-13T19:21:40.532Z,14.40
2022-10-13T19:24:08.622Z,14.40
2022-10-13T19:26:37.514Z,14.30
2022-10-13T19:29:09.916Z,14.30
2022-10-13T19:31:39.286Z,14.30
2022-10-13T19:34:06.695Z,14.30
2022-10-13T19:36:42.288Z,14.30
2022-10-13T19:39:24.016Z,14.30
2022-10-13T19:41:54.658Z,14.20
2022-10-13T19:44:24.634Z,14.20
2022-10-13T19:46:53.879Z,14.20
2022-10-13T19:49:26.490Z,14.20
2022-10-13T19:51:54.910Z,14.10
2022-10-13T19:54:23.806Z,14.10
2022-10-13T19:56:51.631Z,14.20
2022-10-13T19:59:19.560Z,14.20
2022-10-13T20:01:47.611Z,14.20
2022-10-13T20:04:18.656Z,14.20
2022-10-13T20:06:50.756Z,14.20
2022-10-13T20:09:19.400Z,14.20
2022-10-13T20:11:49.956Z,14.20
2022-10-13T20:14:18.612Z,14.20
2022-10-13T20:16:46.509Z,14.20
2022-10-13T20:19:19.447Z,14.20
2022-10-13T20:21:48.100Z,14.20
2022-10-13T20:24:16.518Z,14.20
2022-10-13T20:26:43.917Z,14.10
2022-10-13T20:29:12.222Z,14.10
2022-10-13T20:31:39.725Z,14.10
2022-10-13T20:34:07.583Z,14.10
2022-10-13T20:36:38.526Z,14.10
2022-10-13T20:39:08.277Z,14.10
2022-10-13T20:41:35.602Z,14.00
2022-10-13T20:44:03.367Z,14.00
2022-10-13T20:46:30.964Z,14.00
2022-10-13T20:49:10.464Z,14.00
2022-10-13T20:51:40.345Z,14.00
2022-10-13T20:54:07.996Z,14.00
2022-10-13T20:56:35.867Z,14.00
2022-10-13T20:59:11.198Z,13.90
2022-10-13T21:01:39.366Z,14.00
2022-10-13T21:04:07.320Z,14.00
2022-10-13T21:06:35.901Z,13.90
2022-10-13T21:09:05.456Z,13.90
2022-10-13T21:11:33.902Z,14.00
2022-10-13T21:14:06.373Z,13.90
2022-10-13T21:16:35.028Z,13.90
2022-10-13T21:19:02.895Z,13.90
2022-10-13T21:21:33.565Z,13.90
2022-10-13T21:24:05.389Z,13.80
2022-10-13T21:26:34.236Z,13.90
2022-10-13T21:29:01.830Z,13.90
2022-10-13T21:31:30.129Z,13.90
2022-10-13T21:33:58.221Z,13.90
2022-10-13T21:36:31.612Z,13.90
2022-10-13T21:39:05.961Z,13.90
2022-10-13T21:41:33.546Z,13.90
2022-10-13T21:44:00.924Z,13.90
2022-10-13T21:46:31.553Z,13.80
2022-10-13T21:49:02.244Z,13.90
2022-10-13T21:51:36.646Z,13.80
2022-10-13T21:54:11.328Z,13.90
2022-10-13T21:56:40.893Z,13.80
2022-10-13T21:59:10.192Z,13.80
2022-10-13T22:01:37.407Z,13.80
2022-10-13T22:04:06.361Z,13.80
2022-10-13T22:06:34.443Z,13.80
2022-10-13T22:09:03.889Z,13.80
2022-10-13T22:11:33.338Z,13.80
2022-10-13T22:14:00.639Z,13.70
2022-10-13T22:16:32.011Z,13.70
2022-10-13T22:18:59.250Z,13.70
2022-10-13T22:21:30.344Z,13.70
2022-10-13T22:24:04.292Z,13.70
2022-10-13T22:26:34.654Z,13.60
2022-10-13T22:29:03.739Z,13.60
2022-10-13T22:31:33.283Z,13.60
2022-10-13T22:34:01.914Z,13.60
2022-10-13T22:36:31.205Z,13.60
2022-10-13T22:39:00.772Z,13.60
2022-10-13T22:41:27.900Z,13.50
2022-10-13T22:43:59.976Z,13.50
2022-10-13T22:46:29.868Z,13.60
2022-10-13T22:48:57.935Z,13.50
2022-10-13T22:51:31.292Z,13.50
2022-10-13T22:53:59.098Z,13.50
2022-10-13T22:56:29.090Z,13.50
2022-10-13T22:58:58.877Z,13.50
2022-10-13T23:01:26.876Z,13.50
2022-10-13T23:03:56.273Z,13.50
2022-10-13T23:06:26.243Z,13.50
2022-10-13T23:08:54.205Z,13.50
2022-10-13T23:11:22.132Z,13.50
2022-10-13T23:13:49.594Z,13.50
2022-10-13T23:16:20.491Z,13.50
2022-10-13T23:18:48.195Z,13.40
2022-10-13T23:21:18.324Z,13.50
2022-10-13T23:23:45.819Z,13.40
2022-10-13T23:26:16.461Z,13.40
2022-10-13T23:28:44.384Z,13.40
2022-10-13T23:31:14.355Z,13.40
2022-10-13T23:33:42.263Z,13.40
2022-10-13T23:36:14.515Z,13.40
2022-10-13T23:38:41.698Z,13.40
2022-10-13T23:41:12.078Z,13.40
2022-10-13T23:43:40.694Z,13.40
2022-10-13T23:46:08.482Z,13.30
2022-10-13T23:48:35.567Z,13.30
2022-10-13T23:51:11.589Z,13.30
2022-10-13T23:53:39.456Z,13.30
2022-10-13T23:56:09.535Z,13.30
2022-10-13T23:58:38.447Z,13.30
